McGuffey, OH (45859)

9:12 AM EDT on October 23, 2014 (GMT -0400)
Ada | Change Station
CLOSE
Current Station
Personal Weather Station
Location: Ada, OH
Elevation: 912 ft
Nearby Weather Stations
Active Advisory: Special Statement

Elev 912 ft 40.82 °N, 83.86 °W | Updated 2 seconds ago

Fog
Fog
35.4 °F
Feels Like 35 °F
N
0.0
Wind Variable Wind from SW
Gusts 0.0 mph

Today
High -- | Low -- °F
--% Chance of Precip.
Yesterday
High -- | Low -- °F
Precip. -- in
7:55 AM 6:43 PM
Waning Crescent, 0% visible
Pressure 30.27 in
Visibility 0.2 miles
Clouds
Windchill 35 °F
Dew Point 35 °F
Humidity 98%
Rainfall 0.00 in
Snow Depth Not available.
UV Not available.
Pollen .90 out of 12
Air Quality Not available.
Flu Activity Sporadic
METAR KAOH 231253Z AUTO 00000KT M1/4SM FG VV002 01/01 A3025 RMK AO2 SLP251 T00110006

More Conditions Fewer Conditions

Pressure 30.27 in
Visibility 0.2 miles
Clouds
Windchill 35 °F
Dew Point 35 °F
Humidity 98%
Rainfall 0.00 in
Snow Depth Not available.
UV Not available.
Pollen .90 out of 12
Air Quality Not available.
Flu Activity Sporadic
METAR KAOH 231253Z AUTO 00000KT M1/4SM FG VV002 01/01 A3025 RMK AO2 SLP251 T00110006

More Conditions Fewer Conditions

10-Day Weather Forecast

Almanac

Astronomy

Oct. 23, 2014 Rise Set
Actual Time 7:55 AM EDT 6:43 PM EDT
Civil Twilight 7:27 AM EDT 7:11 PM EDT
Nautical Twilight 6:55 AM EDT 7:42 PM EDT
Astronomical Twilight 6:23 AM EDT 8:14 PM EDT
Moon 7:33 AM EDT 6:44 PM EDT
Length of Visible Light 11h 43m
Length of Day
10h 48m
Tomorrow will be 2m 31s shorter.
Waning Crescent, 0% of the Moon is Illuminated
Today
Waning Crescent
Oct 23
New
Oct 30
First Quarter
Nov 6
Full
Nov 14
Last Quarter

Today's Extremes

State Highs State Lows

Community

WunderPhotos

Upload Photos

1,764,231 photos uploaded!

Nearby

Snow Depth

Station Depth Elevation
No new snow has been reported.

Earthquake Activity

City Distance Mag. Time & Date
No recent earthquake activity has been reported nearby.
Minimum magnitude displayed is 2.5.

Coastal Water Temperatures

Place Temperature
No Stations Reporting

Nearby Weather Stations